Time;durP1;ratioP1;P1;durP2;ratioP2;P2;SDS_P1;SDS_P2;PMS_P1;PMS_P2;Temp;Humidity;BMP_temperature;BMP_pressure;BME280_temperature;BME280_humidity;BME280_pressure;Samples;Min_cycle;Max_cycle;Signal;HPM_P1;HPM_P2
2021/07/21 00:01:00;;;;;;;8.63;6.90;;;17.40;99.90;;;;;;5045776;28;20237;-79
2021/07/21 00:03:27;;;;;;;10.70;7.85;;;17.30;99.90;;;;;;5046354;28;20629;-80
2021/07/21 00:05:53;;;;;;;12.75;8.18;;;17.30;99.90;;;;;;5066093;28;20228;-79
2021/07/21 00:08:20;;;;;;;10.20;8.07;;;17.30;99.90;;;;;;5066490;28;20193;-80
2021/07/21 00:10:49;;;;;;;8.68;6.97;;;17.30;99.90;;;;;;5066673;28;20217;-81
2021/07/21 00:13:28;;;;;;;8.95;7.35;;;17.30;99.90;;;;;;5065931;28;20205;-80
2021/07/21 00:16:07;;;;;;;9.32;7.13;;;17.20;99.90;;;;;;5046031;28;20864;-80
2021/07/21 00:18:45;;;;;;;10.23;8.15;;;17.20;99.90;;;;;;5046457;28;20220;-80
2021/07/21 00:21:14;;;;;;;10.80;7.85;;;17.20;99.90;;;;;;5046200;28;20843;-80
2021/07/21 00:23:41;;;;;;;9.55;7.05;;;17.10;99.90;;;;;;5060549;28;20219;-81
2021/07/21 00:26:08;;;;;;;8.98;6.82;;;17.10;99.90;;;;;;5059171;28;20205;-81
2021/07/21 00:28:39;;;;;;;9.80;7.70;;;17.10;99.90;;;;;;5046283;28;20201;-80
2021/07/21 00:31:07;;;;;;;11.40;7.95;;;17.10;99.90;;;;;;5047163;28;20214;-79
2021/07/21 00:33:35;;;;;;;11.98;8.32;;;17.00;99.90;;;;;;5046652;28;20209;-80
2021/07/21 00:36:02;;;;;;;10.85;8.40;;;17.00;99.90;;;;;;5046605;28;20221;-79
2021/07/21 00:38:29;;;;;;;12.07;7.57;;;17.00;99.90;;;;;;5060180;28;20523;-79
2021/07/21 00:40:56;;;;;;;11.00;8.45;;;17.00;99.90;;;;;;5066450;28;20205;-79
2021/07/21 00:43:23;;;;;;;10.98;8.30;;;16.90;99.90;;;;;;5061573;28;20202;-78
2021/07/21 00:45:49;;;;;;;8.80;7.28;;;16.90;99.90;;;;;;5045088;28;20206;-78
2021/07/21 00:48:16;;;;;;;12.13;8.40;;;16.90;99.90;;;;;;5046414;28;20206;-80
2021/07/21 00:50:44;;;;;;;9.95;7.53;;;16.90;99.90;;;;;;5044624;28;20221;-79
2021/07/21 00:53:11;;;;;;;10.77;9.00;;;16.80;99.90;;;;;;5046043;28;20224;-79
2021/07/21 00:55:40;;;;;;;11.13;8.87;;;16.80;99.90;;;;;;5045359;28;20194;-81
2021/07/21 00:58:07;;;;;;;13.38;9.15;;;16.80;99.90;;;;;;5045270;28;20194;-80
2021/07/21 01:00:34;;;;;;;12.52;9.23;;;16.70;99.90;;;;;;5044781;28;20970;-80
2021/07/21 01:03:01;;;;;;;10.38;8.13;;;16.70;99.90;;;;;;5045663;28;20202;-78
2021/07/21 01:05:32;;;;;;;12.15;9.02;;;16.70;99.90;;;;;;5044766;28;20209;-79
2021/07/21 01:08:00;;;;;;;11.50;8.48;;;16.70;99.90;;;;;;5045337;28;20202;-79
2021/07/21 01:10:28;;;;;;;11.48;8.60;;;16.70;99.90;;;;;;5045446;28;20601;-80
2021/07/21 01:13:01;;;;;;;11.05;8.75;;;16.60;99.90;;;;;;5045052;28;20225;-80
2021/07/21 01:15:36;;;;;;;13.18;8.88;;;16.60;99.90;;;;;;5045156;28;20586;-80
2021/07/21 01:18:07;;;;;;;13.00;10.00;;;16.60;99.90;;;;;;5045484;28;20201;-80
2021/07/21 01:21:14;;;;;;;10.98;8.77;;;16.60;99.90;;;;;;5044061;28;20239;-80
2021/07/21 01:24:05;;;;;;;11.33;8.73;;;16.60;99.90;;;;;;5045205;28;20202;-79
2021/07/21 01:26:42;;;;;;;11.37;8.53;;;16.60;99.90;;;;;;5032075;28;20202;-80
2021/07/21 01:29:10;;;;;;;10.37;8.23;;;16.50;99.90;;;;;;5054723;28;20220;-80
2021/07/21 01:31:41;;;;;;;11.33;8.90;;;16.50;99.90;;;;;;5064700;28;20236;-80
2021/07/21 01:34:10;;;;;;;11.70;8.13;;;16.50;99.90;;;;;;5064494;28;20193;-80
2021/07/21 01:36:40;;;;;;;10.70;8.27;;;16.50;99.90;;;;;;5044634;28;20206;-79
2021/07/21 01:39:11;;;;;;;8.50;7.60;;;16.50;99.90;;;;;;5045012;28;20292;-81
2021/07/21 01:41:43;;;;;;;8.73;7.17;;;16.50;99.90;;;;;;5048486;28;20205;-81
2021/07/21 01:44:18;;;;;;;10.43;8.03;;;16.40;99.90;;;;;;5046154;28;20213;-80
2021/07/21 01:46:49;;;;;;;10.95;8.23;;;16.40;99.90;;;;;;5045409;28;20233;-79
2021/07/21 01:49:16;;;;;;;10.95;7.75;;;16.40;99.90;;;;;;5046668;28;20641;-79
2021/07/21 01:51:44;;;;;;;8.02;6.45;;;16.40;99.90;;;;;;5055488;28;20216;-79
2021/07/21 01:54:12;;;;;;;10.70;8.23;;;16.40;99.90;;;;;;5064809;28;20324;-79
2021/07/21 01:56:40;;;;;;;11.27;8.67;;;16.40;99.90;;;;;;5062938;28;20197;-79
2021/07/21 01:59:08;;;;;;;11.30;8.03;;;16.30;99.90;;;;;;5047740;28;20205;-80
2021/07/21 02:01:39;;;;;;;11.73;8.57;;;16.30;99.90;;;;;;5043385;28;20240;-79
2021/07/21 02:04:07;;;;;;;10.43;7.87;;;16.30;99.90;;;;;;5044485;28;20213;-79
2021/07/21 02:06:34;;;;;;;10.63;8.00;;;16.20;99.90;;;;;;5044769;28;20202;-79
2021/07/21 02:09:04;;;;;;;9.80;7.60;;;16.20;99.90;;;;;;5057929;28;20270;-79
2021/07/21 02:11:31;;;;;;;9.70;7.60;;;16.20;99.90;;;;;;5064144;28;20228;-79
2021/07/21 02:14:00;;;;;;;8.47;6.83;;;16.10;99.90;;;;;;5065001;28;20197;-80
2021/07/21 02:16:28;;;;;;;7.60;6.50;;;16.10;99.90;;;;;;5064606;28;20201;-79
2021/07/21 02:18:57;;;;;;;6.75;5.82;;;16.10;99.90;;;;;;5044579;28;20213;-79
2021/07/21 02:21:24;;;;;;;7.63;6.45;;;16.10;99.90;;;;;;5044422;28;20213;-80
2021/07/21 02:23:52;;;;;;;6.80;6.07;;;16.00;99.90;;;;;;5043503;28;20214;-80
2021/07/21 02:26:19;;;;;;;6.83;5.83;;;16.00;99.90;;;;;;5044596;28;20219;-79
2021/07/21 02:28:47;;;;;;;6.77;6.07;;;16.00;99.90;;;;;;5043137;28;20890;-80
2021/07/21 02:31:19;;;;;;;8.50;6.30;;;16.00;99.90;;;;;;5044332;28;20202;-79
2021/07/21 02:33:52;;;;;;;10.10;7.57;;;16.00;99.90;;;;;;5043619;28;20202;-81
2021/07/21 02:36:20;;;;;;;8.47;7.27;;;15.90;99.90;;;;;;5043858;28;20190;-80
2021/07/21 02:38:48;;;;;;;9.50;7.70;;;15.90;99.90;;;;;;5043311;28;20390;-81
2021/07/21 02:41:16;;;;;;;10.67;7.80;;;15.90;99.90;;;;;;5044117;28;20494;-80
2021/07/21 02:43:43;;;;;;;9.43;7.78;;;15.90;99.90;;;;;;5042745;28;20198;-81
2021/07/21 02:46:11;;;;;;;8.43;6.57;;;15.90;99.90;;;;;;5043523;28;20255;-80
2021/07/21 02:48:38;;;;;;;10.00;7.73;;;15.90;99.90;;;;;;5043279;28;20202;-80
2021/07/21 02:51:10;;;;;;;8.03;6.60;;;15.90;99.90;;;;;;5043006;28;20610;-81
2021/07/21 02:53:42;;;;;;;8.77;7.18;;;15.90;99.90;;;;;;5051850;28;20228;-80
2021/07/21 02:56:11;;;;;;;8.03;7.07;;;15.80;99.90;;;;;;5073228;28;20197;-80
2021/07/21 02:58:44;;;;;;;8.23;6.67;;;15.80;99.90;;;;;;5056390;28;20214;-80
2021/07/21 03:01:14;;;;;;;7.60;6.00;;;15.80;99.90;;;;;;5048048;28;20233;-81
2021/07/21 03:03:43;;;;;;;8.13;6.93;;;15.80;99.90;;;;;;5047284;28;20214;-80
2021/07/21 03:06:11;;;;;;;9.03;7.67;;;15.80;99.90;;;;;;5045722;28;20194;-80
2021/07/21 03:08:40;;;;;;;8.67;6.50;;;15.80;99.90;;;;;;5047375;28;20268;-81
2021/07/21 03:11:07;;;;;;;8.00;7.20;;;15.80;99.90;;;;;;5047858;28;20208;-80
2021/07/21 03:13:39;;;;;;;8.53;7.10;;;15.70;99.90;;;;;;5047248;28;20256;-79
2021/07/21 03:16:07;;;;;;;10.03;7.50;;;15.70;99.90;;;;;;5047758;28;20221;-80
2021/07/21 03:18:34;;;;;;;9.70;7.63;;;15.70;99.90;;;;;;5046717;28;20205;-79
2021/07/21 03:21:02;;;;;;;7.30;6.47;;;15.70;99.90;;;;;;5048191;28;20224;-79
2021/07/21 03:23:31;;;;;;;8.33;6.83;;;15.60;99.90;;;;;;5047212;28;20198;-82
2021/07/21 03:26:01;;;;;;;7.20;5.97;;;15.60;99.90;;;;;;5046859;28;20210;-80
2021/07/21 03:28:29;;;;;;;6.73;5.90;;;15.60;99.90;;;;;;5047510;28;20275;-80
2021/07/21 03:30:56;;;;;;;6.70;5.97;;;15.50;99.90;;;;;;5047091;28;20194;-80
2021/07/21 03:33:27;;;;;;;8.40;6.87;;;15.50;99.90;;;;;;5046302;28;20229;-81
2021/07/21 03:36:00;;;;;;;8.17;6.63;;;15.50;99.90;;;;;;5050323;28;20231;-80
2021/07/21 03:38:28;;;;;;;7.37;6.23;;;15.50;99.90;;;;;;5047696;28;20202;-79
2021/07/21 03:40:57;;;;;;;10.77;7.53;;;15.50;99.90;;;;;;5047560;28;20206;-81
2021/07/21 03:43:26;;;;;;;9.93;7.67;;;15.50;99.90;;;;;;5048483;28;20198;-79
2021/07/21 03:45:56;;;;;;;8.70;6.13;;;15.50;99.90;;;;;;5047323;28;20225;-80
2021/07/21 03:48:25;;;;;;;8.97;6.67;;;15.40;99.90;;;;;;5048829;28;20598;-80
2021/07/21 03:50:56;;;;;;;7.47;6.63;;;15.40;99.90;;;;;;5048833;28;20209;-79
2021/07/21 03:53:23;;;;;;;7.10;6.07;;;15.40;99.90;;;;;;5049549;28;20312;-80
2021/07/21 03:55:51;;;;;;;7.33;6.53;;;15.40;99.90;;;;;;5048677;28;20190;-79
2021/07/21 03:58:18;;;;;;;8.73;6.77;;;15.40;99.90;;;;;;5047943;28;20202;-81
2021/07/21 04:00:47;;;;;;;9.90;7.50;;;15.30;99.90;;;;;;5046595;28;20238;-81
2021/07/21 04:03:15;;;;;;;8.10;6.63;;;15.30;99.90;;;;;;5047378;28;20209;-81
2021/07/21 04:05:42;;;;;;;10.77;7.63;;;15.30;99.90;;;;;;5046993;28;20233;-80
2021/07/21 04:08:09;;;;;;;8.87;7.00;;;15.30;99.90;;;;;;5046929;28;20206;-81
2021/07/21 04:10:37;;;;;;;10.40;8.60;;;15.30;99.90;;;;;;5046273;28;20221;-79
2021/07/21 04:13:05;;;;;;;8.37;7.00;;;15.30;99.90;;;;;;5046571;28;20233;-80
2021/07/21 04:15:32;;;;;;;10.83;7.80;;;15.30;99.90;;;;;;5044724;28;20502;-80
2021/07/21 04:18:01;;;;;;;8.63;7.13;;;15.40;99.90;;;;;;5055938;28;20206;-80
2021/07/21 04:20:29;;;;;;;13.00;9.57;;;15.40;99.90;;;;;;5058245;28;20202;-81
2021/07/21 04:22:58;;;;;;;14.20;9.33;;;15.50;99.90;;;;;;5051755;28;20210;-82
2021/07/21 04:25:25;;;;;;;10.50;8.20;;;15.50;99.90;;;;;;5049767;28;20214;-81
2021/07/21 04:27:55;;;;;;;11.33;8.70;;;15.50;99.90;;;;;;5046573;28;20267;-80
2021/07/21 04:30:22;;;;;;;10.50;8.77;;;15.50;99.90;;;;;;5046101;28;20202;-80
2021/07/21 04:32:49;;;;;;;10.70;8.00;;;15.50;99.90;;;;;;5045662;28;20226;-81
2021/07/21 04:35:18;;;;;;;10.13;8.33;;;15.50;99.90;;;;;;5045857;28;20206;-82
2021/07/21 04:37:46;;;;;;;10.67;7.83;;;15.50;99.90;;;;;;5046258;28;20212;-82
2021/07/21 04:40:14;;;;;;;11.33;8.77;;;15.60;99.90;;;;;;5046173;28;20295;-80
2021/07/21 04:42:43;;;;;;;7.70;6.87;;;15.60;99.90;;;;;;5044746;28;20209;-81
2021/07/21 04:45:11;;;;;;;10.30;8.60;;;15.70;99.90;;;;;;5059035;28;20208;-80
2021/07/21 04:47:39;;;;;;;12.10;10.27;;;15.70;99.90;;;;;;5065187;28;20229;-81
2021/07/21 04:50:07;;;;;;;11.80;9.57;;;15.70;99.90;;;;;;5065082;28;20594;-82
2021/07/21 04:52:36;;;;;;;9.87;8.70;;;15.80;99.90;;;;;;5065093;28;20228;-81
2021/07/21 04:55:04;;;;;;;11.83;8.53;;;15.80;99.90;;;;;;5047440;28;20288;-80
2021/07/21 04:57:31;;;;;;;11.67;9.53;;;15.90;99.90;;;;;;5044407;28;20237;-82
2021/07/21 04:59:58;;;;;;;10.30;8.03;;;15.90;99.90;;;;;;5045673;28;20619;-80
2021/07/21 05:02:24;;;;;;;9.50;7.67;;;15.90;99.90;;;;;;5045435;28;20206;-80
2021/07/21 05:04:52;;;;;;;11.03;7.63;;;16.00;99.90;;;;;;5044508;28;20194;-80
2021/07/21 05:07:19;;;;;;;11.27;8.67;;;16.00;99.90;;;;;;5045314;28;20205;-80
2021/07/21 05:09:47;;;;;;;10.57;8.40;;;16.10;99.90;;;;;;5045318;28;20293;-82
2021/07/21 05:12:14;;;;;;;10.15;8.48;;;16.10;99.90;;;;;;5044374;28;20229;-80
2021/07/21 05:14:40;;;;;;;13.70;10.35;;;16.20;99.90;;;;;;5044943;28;20232;-81
2021/07/21 05:17:07;;;;;;;15.43;10.25;;;16.20;99.90;;;;;;5045032;28;20213;-80
2021/07/21 05:19:34;;;;;;;12.23;8.93;;;16.30;99.90;;;;;;5064405;28;20211;-81
2021/07/21 05:22:01;;;;;;;13.43;9.98;;;16.30;99.90;;;;;;5065168;28;20193;-80
2021/07/21 05:24:29;;;;;;;14.40;11.73;;;16.40;99.90;;;;;;5064813;28;20736;-79
2021/07/21 05:26:57;;;;;;;12.60;10.50;;;16.50;99.90;;;;;;5063833;28;20202;-80
2021/07/21 05:29:24;;;;;;;13.35;11.05;;;16.60;99.90;;;;;;5044991;28;20284;-80
2021/07/21 05:31:51;;;;;;;15.50;10.77;;;16.60;99.90;;;;;;5043391;28;20209;-80
2021/07/21 05:34:18;;;;;;;15.50;12.18;;;16.70;99.90;;;;;;5044164;28;20650;-81
2021/07/21 05:36:46;;;;;;;18.75;13.43;;;16.80;99.90;;;;;;5044027;28;20202;-81
2021/07/21 05:39:16;;;;;;;15.35;12.48;;;17.00;99.90;;;;;;5047498;28;20197;-81
2021/07/21 05:41:44;;;;;;;16.67;12.68;;;17.20;99.90;;;;;;5045720;28;20310;-82
2021/07/21 05:44:13;;;;;;;17.30;12.95;;;17.60;99.90;;;;;;5045300;28;20629;-81
2021/07/21 05:46:40;;;;;;;22.70;14.45;;;17.90;99.90;;;;;;5044259;28;20225;-81
2021/07/21 05:49:06;;;;;;;19.10;14.50;;;18.20;99.90;;;;;;5044917;28;20552;-80
2021/07/21 05:51:33;;;;;;;20.38;13.68;;;18.50;99.90;;;;;;5044892;28;20201;-81
2021/07/21 05:54:00;;;;;;;19.05;12.85;;;18.80;99.90;;;;;;5044651;28;20626;-81
2021/07/21 05:56:29;;;;;;;15.55;13.00;;;19.10;99.90;;;;;;5044936;28;20205;-81
2021/07/21 05:58:56;;;;;;;19.50;13.77;;;19.40;99.90;;;;;;5045068;28;20229;-81
2021/07/21 06:01:24;;;;;;;17.70;12.95;;;19.60;99.90;;;;;;5043646;28;20241;-81
2021/07/21 06:03:51;;;;;;;18.90;12.43;;;19.90;99.90;;;;;;5044131;28;20287;-80
2021/07/21 06:06:18;;;;;;;17.50;13.10;;;20.10;99.90;;;;;;5058214;28;20212;-80
2021/07/21 06:08:45;;;;;;;19.85;13.95;;;20.30;99.90;;;;;;5063441;28;20205;-81
2021/07/21 06:11:12;;;;;;;19.02;14.85;;;20.50;99.90;;;;;;5065523;28;20205;-81
2021/07/21 06:13:39;;;;;;;20.52;12.82;;;20.60;99.90;;;;;;5059286;28;20232;-80
2021/07/21 06:16:07;;;;;;;23.35;13.52;;;20.80;99.90;;;;;;5043805;28;20268;-80
2021/07/21 06:18:35;;;;;;;15.30;12.43;;;21.00;99.90;;;;;;5044035;28;20220;-80
2021/07/21 06:21:04;;;;;;;19.33;13.32;;;21.30;99.90;;;;;;5044546;28;20194;-81
2021/07/21 06:23:31;;;;;;;15.60;12.10;;;21.60;99.90;;;;;;5044031;28;20218;-80
2021/07/21 06:25:57;;;;;;;20.05;12.75;;;21.80;99.90;;;;;;5044601;28;20206;-81
2021/07/21 06:28:25;;;;;;;15.18;12.52;;;22.00;99.90;;;;;;5044876;28;20198;-82
2021/07/21 06:30:52;;;;;;;16.55;12.30;;;22.20;99.90;;;;;;5044133;28;20263;-80
2021/07/21 06:33:19;;;;;;;18.25;12.32;;;22.40;99.90;;;;;;5044202;28;20221;-80
2021/07/21 06:35:47;;;;;;;15.25;10.75;;;22.70;99.90;;;;;;5042785;28;20202;-80
2021/07/21 06:38:15;;;;;;;17.70;12.52;;;23.00;99.90;;;;;;5043573;28;20201;-81
2021/07/21 06:40:42;;;;;;;16.60;11.05;;;23.20;99.90;;;;;;5044288;28;20567;-82
2021/07/21 06:43:09;;;;;;;15.10;11.32;;;23.50;99.90;;;;;;5046020;28;20198;-81
2021/07/21 06:45:36;;;;;;;15.30;11.20;;;23.70;99.90;;;;;;5047755;28;20206;-81
2021/07/21 06:48:03;;;;;;;13.85;10.50;;;24.00;99.90;;;;;;5048441;28;20202;-81
2021/07/21 06:50:30;;;;;;;15.00;12.02;;;24.20;99.90;;;;;;5047068;28;20206;-81
2021/07/21 06:52:58;;;;;;;14.98;10.25;;;24.40;99.90;;;;;;5047864;28;20268;-80
2021/07/21 06:55:25;;;;;;;15.68;12.35;;;24.70;99.90;;;;;;5048710;28;20427;-82
2021/07/21 06:58:07;;;;;;;12.45;10.45;;;24.80;99.90;;;;;;5036517;28;20503;-84
2021/07/21 07:00:34;;;;;;;15.10;9.90;;;25.10;99.90;;;;;;5050364;28;20237;-82
2021/07/21 07:03:01;;;;;;;13.13;9.93;;;25.40;99.90;;;;;;5049309;28;20198;-83
2021/07/21 07:05:27;;;;;;;13.80;9.95;;;25.30;99.90;;;;;;5049966;28;20201;-84
2021/07/21 07:07:54;;;;;;;12.25;9.45;;;25.60;99.90;;;;;;5050252;28;20208;-82
2021/07/21 07:10:22;;;;;;;15.02;10.15;;;25.80;99.90;;;;;;5064174;28;20216;-81
2021/07/21 07:12:50;;;;;;;14.85;9.85;;;26.20;99.90;;;;;;5068785;28;20270;-83
2021/07/21 07:15:17;;;;;;;19.17;9.48;;;26.30;99.90;;;;;;5064080;28;20205;-82
2021/07/21 07:17:46;;;;;;;13.85;7.93;;;26.50;99.90;;;;;;5057092;28;20209;-83
2021/07/21 07:20:14;;;;;;;16.60;9.30;;;26.70;99.90;;;;;;5049217;28;20232;-86
2021/07/21 07:22:41;;;;;;;11.85;8.55;;;26.80;99.90;;;;;;5048783;28;20841;-81
2021/07/21 07:25:09;;;;;;;11.82;8.90;;;27.00;99.90;;;;;;5048184;28;20516;-80
2021/07/21 07:27:37;;;;;;;8.38;7.47;;;27.40;99.90;;;;;;5057407;28;20212;-84
2021/07/21 07:30:06;;;;;;;12.23;8.32;;;27.60;99.90;;;;;;5070243;28;20211;-81
2021/07/21 07:32:33;;;;;;;7.95;7.15;;;27.70;99.90;;;;;;5068485;28;20299;-82
2021/07/21 07:34:59;;;;;;;11.60;7.78;;;27.80;99.90;;;;;;5068870;28;20617;-81
2021/07/21 07:37:28;;;;;;;7.93;6.55;;;28.00;99.90;;;;;;5068485;28;20211;-84
2021/07/21 07:39:55;;;;;;;8.13;7.20;;;28.10;99.90;;;;;;5068876;28;20197;-83
2021/07/21 07:42:22;;;;;;;7.88;6.20;;;27.80;99.90;;;;;;5053616;28;20586;-83
2021/07/21 07:44:51;;;;;;;7.28;6.43;;;27.70;99.90;;;;;;5048039;28;20205;-83
2021/07/21 07:47:18;;;;;;;8.57;6.13;;;27.50;99.90;;;;;;5048190;28;20230;-83
2021/07/21 07:49:46;;;;;;;6.72;5.97;;;27.20;99.90;;;;;;5048625;28;20705;-82
2021/07/21 07:52:13;;;;;;;7.53;6.13;;;27.30;99.90;;;;;;5048782;28;20571;-83
2021/07/21 07:54:40;;;;;;;7.15;6.43;;;27.40;99.90;;;;;;5048714;28;20225;-85
2021/07/21 07:57:07;;;;;;;7.00;6.20;;;27.50;99.90;;;;;;5049437;28;20201;-83
2021/07/21 07:59:34;;;;;;;7.13;6.18;;;27.70;99.90;;;;;;5047924;28;20204;-81
2021/07/21 08:02:02;;;;;;;7.32;5.50;;;27.90;99.90;;;;;;5059561;28;20290;-84
2021/07/21 08:04:29;;;;;;;6.53;5.40;;;27.90;99.90;;;;;;5069966;28;20197;-84
2021/07/21 08:06:56;;;;;;;8.60;5.70;;;27.90;99.90;;;;;;5063176;28;20233;-84
2021/07/21 08:09:23;;;;;;;6.10;5.00;;;27.80;99.90;;;;;;5049824;28;20505;-83
2021/07/21 08:11:52;;;;;;;6.50;5.38;;;27.70;99.90;;;;;;5050478;28;20210;-84
2021/07/21 08:14:20;;;;;;;6.47;5.53;;;27.80;99.90;;;;;;5050106;28;20230;-84
2021/07/21 08:16:47;;;;;;;6.22;5.63;;;27.90;99.90;;;;;;5050214;28;20213;-84
2021/07/21 08:19:16;;;;;;;7.70;5.78;;;28.10;99.90;;;;;;5049923;28;20206;-83
2021/07/21 08:21:43;;;;;;;7.22;6.07;;;28.20;99.90;;;;;;5047969;28;20209;-82
2021/07/21 08:24:10;;;;;;;6.32;5.72;;;28.40;99.90;;;;;;5047305;28;20209;-83
2021/07/21 08:26:37;;;;;;;7.93;5.30;;;28.70;99.90;;;;;;5046413;28;20214;-82
2021/07/21 08:29:04;;;;;;;5.60;4.80;;;29.00;99.90;;;;;;5047439;28;20210;-85
2021/07/21 08:31:31;;;;;;;6.35;5.45;;;29.40;99.90;;;;;;5049637;28;20205;-86
2021/07/21 08:34:00;;;;;;;6.82;5.38;;;29.60;99.90;;;;;;5066096;28;20548;-90
2021/07/21 08:36:29;;;;;;;8.82;6.10;;;29.70;99.90;;;;;;5070043;28;20201;-86
2021/07/21 08:38:56;;;;;;;7.88;6.03;;;29.90;99.90;;;;;;5071280;28;20202;-89
2021/07/21 08:41:26;;;;;;;7.95;6.93;;;29.90;99.90;;;;;;5053402;28;20224;-88
2021/07/21 08:43:53;;;;;;;9.90;6.38;;;30.00;99.90;;;;;;5050465;28;20372;-89
2021/07/21 08:46:20;;;;;;;7.90;6.30;;;30.10;99.90;;;;;;5057014;28;20225;-87
2021/07/21 08:48:50;;;;;;;9.50;6.22;;;30.20;99.90;;;;;;5052037;28;20205;-87
2021/07/21 08:51:20;;;;;;;6.43;5.45;;;30.20;99.90;;;;;;5051956;28;20209;-87
2021/07/21 08:53:50;;;;;;;6.65;4.97;;;30.00;99.90;;;;;;5052180;28;20225;-88
2021/07/21 08:56:17;;;;;;;5.35;4.85;;;30.00;99.90;;;;;;5066899;28;20542;-86
2021/07/21 08:58:46;;;;;;;5.78;5.13;;;29.80;99.90;;;;;;5072534;28;20194;-89
2021/07/21 09:01:13;;;;;;;5.30;4.80;;;29.70;99.90;;;;;;5073250;28;20240;-87
2021/07/21 09:03:41;;;;;;;6.75;5.05;;;29.80;99.90;;;;;;5070293;28;20190;-86
2021/07/21 09:06:09;;;;;;;7.85;5.38;;;29.90;99.90;;;;;;5071155;28;20197;-85
2021/07/21 09:08:37;;;;;;;6.18;4.85;;;30.00;99.90;;;;;;5080501;28;20201;-88
2021/07/21 09:11:06;;;;;;;7.38;5.63;;;30.10;99.90;;;;;;5050947;28;20214;-83
2021/07/21 09:13:34;;;;;;;6.63;5.85;;;30.10;99.90;;;;;;5049014;28;20229;-85
2021/07/21 09:16:01;;;;;;;8.15;5.25;;;30.30;99.90;;;;;;5048668;28;20193;-89
2021/07/21 09:18:31;;;;;;;5.63;4.82;;;30.40;99.90;;;;;;5047206;28;20205;-88
2021/07/21 09:21:07;;;;;;;6.70;5.50;;;30.60;99.90;;;;;;5047372;28;20237;-87
2021/07/21 09:23:37;;;;;;;6.75;5.40;;;30.70;99.90;;;;;;5046480;28;20200;-86
2021/07/21 09:26:08;;;;;;;6.28;5.15;;;30.80;99.90;;;;;;5055332;28;20205;-87
2021/07/21 09:28:36;;;;;;;6.65;5.45;;;30.90;99.90;;;;;;5060356;28;20560;-87
2021/07/21 09:31:04;;;;;;;5.85;5.18;;;31.00;99.90;;;;;;5071442;28;20308;-83
2021/07/21 09:33:32;;;;;;;9.07;7.05;;;31.00;99.90;;;;;;5067135;28;20225;-86
2021/07/21 09:35:59;;;;;;;7.03;6.32;;;31.10;99.90;;;;;;5069376;28;20259;-82
2021/07/21 09:38:29;;;;;;;8.32;6.47;;;30.90;99.90;;;;;;5062139;28;20209;-83
2021/07/21 09:40:58;;;;;;;8.75;7.20;;;30.80;99.90;;;;;;5047237;28;20201;-84
2021/07/21 09:43:29;;;;;;;9.80;7.00;;;30.50;99.90;;;;;;5044991;28;20263;-84
2021/07/21 09:46:04;;;;;;;9.80;7.60;;;30.20;99.90;;;;;;5048339;28;20194;-85
2021/07/21 09:48:38;;;;;;;10.10;7.38;;;30.00;99.90;;;;;;5049031;28;20404;-84
2021/07/21 09:51:06;;;;;;;8.32;7.43;;;29.80;99.90;;;;;;5049997;28;20506;-82
2021/07/21 09:53:41;;;;;;;10.75;8.35;;;29.60;99.90;;;;;;5048376;28;20201;-83
2021/07/21 09:56:08;;;;;;;14.60;9.63;;;29.60;99.90;;;;;;5047984;28;20511;-85
2021/07/21 09:58:37;;;;;;;11.40;8.90;;;29.40;99.90;;;;;;5049183;28;20260;-85
2021/07/21 10:01:05;;;;;;;11.25;9.90;;;29.20;99.90;;;;;;5047164;28;20326;-83
2021/07/21 10:03:35;;;;;;;10.77;7.93;;;29.20;99.90;;;;;;5045982;28;20260;-87
2021/07/21 10:06:07;;;;;;;10.35;7.88;;;29.20;99.90;;;;;;5046285;28;20209;-84
2021/07/21 10:08:41;;;;;;;11.10;7.85;;;29.30;99.90;;;;;;5046516;28;20809;-87
2021/07/21 10:11:29;;;;;;;13.23;11.07;;;29.30;99.90;;;;;;5047675;28;20205;-84
2021/07/21 10:14:11;;;;;;;10.40;8.98;;;29.50;99.90;;;;;;5047243;28;20233;-84
2021/07/21 10:16:44;;;;;;;10.40;9.30;;;29.50;99.90;;;;;;5047224;28;20209;-86
2021/07/21 10:19:13;;;;;;;11.45;9.00;;;29.30;99.90;;;;;;5052075;28;20219;-86
2021/07/21 10:21:44;;;;;;;11.30;8.45;;;29.20;99.90;;;;;;5057638;28;20205;-83
2021/07/21 10:24:14;;;;;;;11.57;8.13;;;29.10;99.90;;;;;;5071120;28;20301;-87
2021/07/21 10:26:43;;;;;;;11.18;8.93;;;29.20;99.90;;;;;;5053089;28;20209;-87
2021/07/21 10:29:15;;;;;;;9.73;8.35;;;29.20;99.90;;;;;;5054619;28;20232;-87
2021/07/21 10:31:43;;;;;;;10.48;7.65;;;29.40;99.90;;;;;;5072402;28;20201;-89
2021/07/21 10:34:10;;;;;;;8.38;6.53;;;29.50;99.90;;;;;;5066064;28;20221;-89
2021/07/21 10:36:38;;;;;;;7.93;6.22;;;29.60;99.90;;;;;;5051821;28;20197;-86
2021/07/21 10:39:11;;;;;;;9.82;6.85;;;29.90;99.90;;;;;;5052217;28;20201;-88
2021/07/21 10:41:39;;;;;;;8.00;6.07;;;30.00;99.90;;;;;;5051274;28;20205;-87
2021/07/21 10:44:09;;;;;;;6.88;6.18;;;29.80;99.90;;;;;;5055312;28;20201;-85
2021/07/21 10:46:40;;;;;;;7.05;6.35;;;30.00;99.90;;;;;;5065888;28;20340;-87
2021/07/21 10:49:15;;;;;;;9.23;7.15;;;30.00;99.90;;;;;;5051640;28;20205;-83
2021/07/21 10:51:59;;;;;;;8.88;6.50;;;29.90;99.90;;;;;;5054923;28;20564;-87
2021/07/21 10:54:51;;;;;;;8.70;7.05;;;30.00;99.90;;;;;;5054465;28;20613;-86
2021/07/21 11:00:11;;;;;;;8.55;6.28;;;29.60;99.90;;;;;;5049389;28;20241;-85
2021/07/21 11:02:40;;;;;;;10.43;5.47;;;29.60;99.90;;;;;;5049410;28;20218;-85
2021/07/21 11:05:09;;;;;;;6.88;6.10;;;29.60;99.90;;;;;;5050515;28;20206;-86
2021/07/21 11:07:52;;;;;;;8.65;6.57;;;29.50;99.90;;;;;;5055610;28;20317;-86
2021/07/21 11:10:36;;;;;;;6.60;5.63;;;29.40;99.90;;;;;;5070511;28;20201;-84
2021/07/21 11:13:05;;;;;;;6.90;5.63;;;29.50;99.90;;;;;;5070537;28;20235;-88
2021/07/21 11:15:36;;;;;;;10.38;6.63;;;29.50;99.90;;;;;;5070554;28;20649;-86
2021/07/21 11:18:42;;;;;;;8.93;6.95;;;29.60;99.90;;;;;;5058594;28;20606;-82
2021/07/21 11:21:11;;;;;;;8.88;6.82;;;29.60;99.90;;;;;;5051624;28;20293;-93
2021/07/21 11:23:47;;;;;;;8.65;5.35;;;29.40;99.90;;;;;;5050079;28;20217;-86
2021/07/21 11:26:43;;;;;;;8.75;5.90;;;29.30;99.90;;;;;;5050531;28;20527;-89
2021/07/21 11:29:44;;;;;;;9.95;7.40;;;29.00;99.90;;;;;;5050575;28;20240;-85
2021/07/21 11:32:29;;;;;;;6.20;5.13;;;29.10;99.90;;;;;;5050475;28;20209;-88
2021/07/21 11:34:58;;;;;;;10.18;6.93;;;29.50;99.90;;;;;;5050305;28;20631;-88
2021/07/21 11:37:35;;;;;;;7.90;6.20;;;29.70;99.90;;;;;;5050786;28;20202;-86
2021/07/21 11:40:15;;;;;;;9.93;8.73;;;29.80;99.90;;;;;;5051307;28;20598;-87
2021/07/21 11:42:42;;;;;;;8.65;7.60;;;29.70;99.90;;;;;;5048682;28;20205;-86
2021/07/21 11:45:32;;;;;;;10.38;6.80;;;29.70;99.90;;;;;;5050015;28;20218;-84
2021/07/21 11:48:01;;;;;;;10.10;8.38;;;29.50;99.90;;;;;;5058985;28;20534;-87
2021/07/21 11:50:32;;;;;;;9.70;7.25;;;29.70;99.90;;;;;;5069630;28;20258;-88
2021/07/21 11:53:01;;;;;;;9.43;7.30;;;29.70;99.90;;;;;;5072007;28;20773;-89
2021/07/21 11:55:32;;;;;;;7.57;6.78;;;29.50;99.90;;;;;;5066632;28;20217;-89
2021/07/21 11:57:59;;;;;;;17.55;8.32;;;29.70;99.90;;;;;;5051475;28;20206;-87
2021/07/21 12:00:28;;;;;;;11.00;8.30;;;29.80;99.90;;;;;;5057256;28;20233;-90
2021/07/21 12:03:01;;;;;;;12.13;9.23;;;29.80;99.90;;;;;;5071413;28;20369;-89
2021/07/21 12:05:30;;;;;;;10.98;9.48;;;29.80;99.90;;;;;;5062710;28;20206;-88
2021/07/21 12:08:00;;;;;;;13.00;9.85;;;29.60;99.90;;;;;;5054086;28;20201;-85
2021/07/21 12:10:28;;;;;;;12.02;9.32;;;29.40;99.90;;;;;;5061429;28;20197;-87
2021/07/21 12:12:56;;;;;;;11.80;9.02;;;29.20;99.90;;;;;;5050994;28;20259;-87
2021/07/21 12:15:22;;;;;;;12.65;10.75;;;29.20;99.90;;;;;;5051281;28;20268;-84
2021/07/21 12:17:50;;;;;;;14.90;11.10;;;29.20;99.90;;;;;;5060891;28;20255;-88
2021/07/21 12:20:18;;;;;;;15.40;11.68;;;29.20;99.90;;;;;;5072361;28;20590;-90
2021/07/21 12:22:47;;;;;;;15.75;11.70;;;29.10;99.90;;;;;;5063549;28;20220;-90
2021/07/21 12:25:17;;;;;;;14.25;10.70;;;29.00;99.90;;;;;;5052613;28;20202;-87
2021/07/21 12:27:46;;;;;;;16.20;11.45;;;29.00;99.90;;;;;;5051644;28;20213;-88
2021/07/21 12:30:15;;;;;;;16.27;12.50;;;28.90;99.90;;;;;;5052424;28;20272;-88
2021/07/21 12:32:45;;;;;;;16.58;13.50;;;29.10;99.90;;;;;;5050830;28;20206;-91
2021/07/21 12:35:13;;;;;;;22.85;17.75;;;28.80;99.90;;;;;;5050889;28;20229;-87
2021/07/21 12:37:43;;;;;;;22.63;16.25;;;28.70;99.90;;;;;;5050923;28;20498;-87
2021/07/21 12:40:14;;;;;;;20.00;15.93;;;28.30;99.90;;;;;;5051588;28;20198;-90
2021/07/21 12:42:42;;;;;;;24.80;18.35;;;28.20;99.90;;;;;;5069291;28;20941;-85
2021/07/21 12:45:12;;;;;;;22.85;17.25;;;28.30;99.90;;;;;;5073193;28;20216;-95
2021/07/21 12:47:42;;;;;;;26.55;18.58;;;28.20;99.90;;;;;;5071985;28;20224;-91
2021/07/21 12:50:12;;;;;;;27.33;20.77;;;28.10;99.90;;;;;;5056975;28;20300;-88
2021/07/21 12:52:41;;;;;;;27.02;19.48;;;28.10;99.90;;;;;;5053017;28;20205;-84
2021/07/21 12:55:13;;;;;;;28.17;19.10;;;28.00;99.90;;;;;;5053073;28;20229;-89